首页
METAR-TAF:

METAR-TAF

机场 :

基西米, 佛罗里达州, 美国

纬度: 28-17-23N, 经度: 081-26-14W, 海拔: 25米

当前天气观测

该预报发布于1小时和7分钟前的14:56 UTC
静风
温度 31°C
湿度 66%
气压 1020 hPa
能見度: 16.1公里
天空无云

METAR: KISM 211456Z 00000KT 10SM CLR 31/24 A3011 RMK AO2 SLP196 T03110244 50005 $

时间: 12:03 (16:03 UTC)

预报

该预报发布于4小时和42分钟前的11:21 UTC
预报有效从21日的 12点(UTC)到 22日的 12点(UTC)
风速3节,风向多变
能見度: 10公里
少量云层高于3000英尺
多云层高于25000英尺
从 21日的 1500点(UTC)
风速6节,风向南转南东
能見度: 10公里
散云层高于3500英尺
散云层高于25000英尺
从 21日的 2000点(UTC)
风速8节,风向东转东南
能見度: 10公里
散云层高于4000英尺, 积雨云.
散云层高于25000英尺
附近有雷暴
短暂存在
从 21日的 20点(UTC)到 21日的 23点(UTC)
能見度: 4.8公里
多云层高于3500英尺, 积雨云.
雷暴, 雨
从 22日的 0100点(UTC)
风速5节,风向东南
能見度: 10公里
少量云层高于4000英尺
散云层高于25000英尺

TAF: KISM 211121Z 2112/2212 VRB03KT P6SM FEW030 BKN250 FM211500 16006KT P6SM SCT035 SCT250 FM212000 12008KT P6SM VCTS SCT040CB SCT250 TEMPO 2120/2123 3SM TSRA BKN035CB FM220100 13005KT P6SM FEW040 SCT250

超过4000个机场的气象观测和天气预报(METAR&TAF报告)。

可查询的气象台以黄色和红色小点在地图上表示。

将鼠标移到小点上方,可查看气象台名称。

然后点击查看天气观测和预报。

如需切换地图:点击带黑十字的绿色按钮放大地图;点击带横线的绿色按钮缩小地图;或者点击绿色箭头查看邻近地区的地图。


METAR-TAF: